SWA133 KBNA-KORL
Flight info
| Callsign | SWA133 |
|---|---|
| Flight time | 1h 20m |
| Altitude | 39000 |
| Route | TIPPN4 DENST THRSR ZPLEN MJKAL JAFAR3 |
| Aircraft | B38M/M-SDE1FGHILORVWXY/HB1 |
Departure
| Time | 2026-05-04 23:26 |
|---|---|
| Airport | Nashville International Airport (KBNA) |
Arrival
| Time | 2026-05-05 00:46 |
|---|---|
| Airport | Orlando Executive Airport (KORL) |
| Time | Latitude | Longitude | Altitude | Speed | Heading |
|---|---|---|---|---|---|
| 2026-05-04 23:04 | 36.12764 | -86.66852 | 577 ft | 0 kts | 303° |
| 2026-05-04 23:18 | 36.12759 | -86.66843 | 577 ft | 2 kts | 303° |
| 2026-05-04 23:18 | 36.12750 | -86.66826 | 580 ft | 2 kts | 307° |
| 2026-05-04 23:18 | 36.12739 | -86.66810 | 577 ft | 2 kts | 294° |
| 2026-05-04 23:18 | 36.12743 | -86.66792 | 577 ft | 2 kts | 225° |
| 2026-05-04 23:19 | 36.12747 | -86.66787 | 575 ft | 0 kts | 222° |
| 2026-05-04 23:21 | 36.12728 | -86.66808 | 576 ft | 11 kts | 222° |
| 2026-05-04 23:21 | 36.12651 | -86.66891 | 582 ft | 17 kts | 220° |
| 2026-05-04 23:21 | 36.12647 | -86.67000 | 582 ft | 15 kts | 310° |
| 2026-05-04 23:22 | 36.12743 | -86.67137 | 582 ft | 21 kts | 310° |
| 2026-05-04 23:22 | 36.12822 | -86.67275 | 585 ft | 18 kts | 280° |
| 2026-05-04 23:22 | 36.12750 | -86.67392 | 583 ft | 19 kts | 223° |
| 2026-05-04 23:22 | 36.12639 | -86.67483 | 586 ft | 20 kts | 208° |
| 2026-05-04 23:23 | 36.12532 | -86.67587 | 588 ft | 18 kts | 223° |
| 2026-05-04 23:23 | 36.12429 | -86.67680 | 589 ft | 17 kts | 199° |
| 2026-05-04 23:23 | 36.12376 | -86.67701 | 588 ft | 8 kts | 201° |
| 2026-05-04 23:23 | 36.12360 | -86.67770 | 587 ft | 12 kts | 286° |
| 2026-05-04 23:24 | 36.12382 | -86.67850 | 585 ft | 0 kts | 288° |
| 2026-05-04 23:25 | 36.12383 | -86.67856 | 585 ft | 4 kts | 288° |
| 2026-05-04 23:25 | 36.12400 | -86.67942 | 585 ft | 13 kts | 264° |
| 2026-05-04 23:25 | 36.12366 | -86.67986 | 585 ft | 7 kts | 200° |
| 2026-05-04 23:25 | 36.12227 | -86.68042 | 582 ft | 56 kts | 198° |
| 2026-05-04 23:26 | 36.11572 | -86.68303 | 585 ft | 138 kts | 198° |
| 2026-05-04 23:26 | 36.10499 | -86.68727 | 1075 ft | 167 kts | 195° |
| 2026-05-04 23:26 | 36.09441 | -86.69103 | 2340 ft | 156 kts | 200° |
| 2026-05-04 23:26 | 36.08319 | -86.69522 | 3032 ft | 181 kts | 199° |
| 2026-05-04 23:27 | 36.07035 | -86.70010 | 3703 ft | 204 kts | 199° |
| 2026-05-04 23:27 | 36.05615 | -86.70546 | 4390 ft | 227 kts | 199° |
| 2026-05-04 23:27 | 36.04034 | -86.71144 | 5183 ft | 247 kts | 200° |
| 2026-05-04 23:27 | 36.02334 | -86.71793 | 6058 ft | 262 kts | 199° |
| 2026-05-04 23:28 | 36.00579 | -86.72460 | 7158 ft | 266 kts | 200° |
| 2026-05-04 23:28 | 35.98777 | -86.73146 | 8109 ft | 275 kts | 200° |
| 2026-05-04 23:28 | 35.96929 | -86.73848 | 9136 ft | 281 kts | 200° |
| 2026-05-04 23:28 | 35.94960 | -86.74167 | 10082 ft | 293 kts | 176° |
| 2026-05-04 23:29 | 35.92955 | -86.73426 | 10789 ft | 314 kts | 153° |
| 2026-05-04 23:29 | 35.91086 | -86.71892 | 11438 ft | 330 kts | 148° |
| 2026-05-04 23:29 | 35.89155 | -86.70290 | 12213 ft | 339 kts | 148° |
| 2026-05-04 23:29 | 35.87854 | -86.69216 | 12824 ft | 341 kts | 148° |
| 2026-05-04 23:30 | 35.85209 | -86.67038 | 13977 ft | 348 kts | 148° |
| 2026-05-04 23:30 | 35.83179 | -86.65367 | 14744 ft | 354 kts | 148° |
| 2026-05-04 23:30 | 35.81117 | -86.63672 | 15520 ft | 358 kts | 148° |
| 2026-05-04 23:30 | 35.79026 | -86.61955 | 16270 ft | 363 kts | 148° |
| 2026-05-04 23:31 | 35.77600 | -86.60785 | 16772 ft | 367 kts | 148° |
| 2026-05-04 23:31 | 35.75483 | -86.59047 | 17484 ft | 372 kts | 148° |
| 2026-05-04 23:31 | 35.73311 | -86.57267 | 18209 ft | 377 kts | 148° |
| 2026-05-04 23:31 | 35.71111 | -86.55465 | 18838 ft | 381 kts | 148° |
| 2026-05-04 23:32 | 35.68893 | -86.53648 | 19487 ft | 384 kts | 148° |
| 2026-05-04 23:32 | 35.66657 | -86.51819 | 20106 ft | 388 kts | 149° |
| 2026-05-04 23:32 | 35.64395 | -86.49969 | 20725 ft | 392 kts | 149° |
| 2026-05-04 23:32 | 35.62112 | -86.48104 | 21334 ft | 395 kts | 149° |
| 2026-05-04 23:33 | 35.59787 | -86.46290 | 21920 ft | 397 kts | 156° |
| 2026-05-04 23:33 | 35.57194 | -86.45204 | 22522 ft | 393 kts | 170° |
| 2026-05-04 23:33 | 35.54566 | -86.44346 | 23040 ft | 399 kts | 168° |
| 2026-05-04 23:33 | 35.51873 | -86.43464 | 23634 ft | 401 kts | 169° |
| 2026-05-04 23:34 | 35.49163 | -86.42593 | 24101 ft | 405 kts | 169° |
| 2026-05-04 23:34 | 35.46423 | -86.41720 | 24582 ft | 407 kts | 169° |
| 2026-05-04 23:34 | 35.43669 | -86.40846 | 25058 ft | 410 kts | 169° |
| 2026-05-04 23:34 | 35.40896 | -86.39959 | 25526 ft | 413 kts | 168° |
| 2026-05-04 23:35 | 35.38240 | -86.38535 | 25993 ft | 422 kts | 149° |
| 2026-05-04 23:35 | 35.35937 | -86.36264 | 26480 ft | 427 kts | 141° |
| 2026-05-04 23:35 | 35.33677 | -86.33871 | 26872 ft | 432 kts | 141° |
| 2026-05-04 23:35 | 35.31404 | -86.31445 | 27341 ft | 434 kts | 141° |
| 2026-05-04 23:36 | 35.29160 | -86.29029 | 27767 ft | 437 kts | 141° |
| 2026-05-04 23:36 | 35.26846 | -86.26531 | 28199 ft | 439 kts | 141° |
| 2026-05-04 23:36 | 35.24547 | -86.24047 | 28618 ft | 442 kts | 141° |
| 2026-05-04 23:36 | 35.22234 | -86.21550 | 29030 ft | 445 kts | 141° |
| 2026-05-04 23:37 | 35.19907 | -86.19040 | 29442 ft | 447 kts | 141° |
| 2026-05-04 23:37 | 35.17567 | -86.16516 | 29842 ft | 450 kts | 141° |
| 2026-05-04 23:37 | 35.15243 | -86.14012 | 30195 ft | 453 kts | 141° |
| 2026-05-04 23:37 | 35.12873 | -86.11461 | 30524 ft | 455 kts | 141° |
| 2026-05-04 23:38 | 35.10493 | -86.08902 | 30852 ft | 457 kts | 141° |
| 2026-05-04 23:38 | 35.08095 | -86.06324 | 31187 ft | 459 kts | 141° |
| 2026-05-04 23:38 | 35.05687 | -86.03738 | 31489 ft | 462 kts | 141° |
| 2026-05-04 23:38 | 35.03269 | -86.01144 | 31808 ft | 464 kts | 141° |
| 2026-05-04 23:39 | 35.00837 | -85.98538 | 32122 ft | 466 kts | 141° |
| 2026-05-04 23:39 | 34.98399 | -85.95925 | 32419 ft | 468 kts | 141° |
| 2026-05-04 23:39 | 34.95942 | -85.93295 | 32722 ft | 471 kts | 141° |
| 2026-05-04 23:39 | 34.93472 | -85.90654 | 33027 ft | 473 kts | 141° |
| 2026-05-04 23:40 | 34.90993 | -85.88005 | 33314 ft | 475 kts | 141° |
| 2026-05-04 23:40 | 34.88494 | -85.85337 | 33609 ft | 478 kts | 141° |
| 2026-05-04 23:40 | 34.85992 | -85.82668 | 33895 ft | 480 kts | 141° |
| 2026-05-04 23:40 | 34.83474 | -85.79985 | 34148 ft | 482 kts | 141° |
| 2026-05-04 23:41 | 34.80937 | -85.77281 | 34408 ft | 484 kts | 141° |
| 2026-05-04 23:41 | 34.78436 | -85.74620 | 34683 ft | 485 kts | 141° |
| 2026-05-04 23:41 | 34.75967 | -85.71798 | 34968 ft | 487 kts | 139° |
| 2026-05-04 23:41 | 34.73524 | -85.68940 | 35256 ft | 488 kts | 139° |
| 2026-05-04 23:42 | 34.71061 | -85.66085 | 35532 ft | 489 kts | 139° |
| 2026-05-04 23:42 | 34.68591 | -85.63234 | 35794 ft | 490 kts | 139° |
| 2026-05-04 23:42 | 34.66117 | -85.60380 | 36052 ft | 491 kts | 139° |
| 2026-05-04 23:42 | 34.63633 | -85.57518 | 36297 ft | 492 kts | 139° |
| 2026-05-04 23:43 | 34.61148 | -85.54657 | 36552 ft | 492 kts | 139° |
| 2026-05-04 23:43 | 34.58653 | -85.51787 | 36789 ft | 494 kts | 139° |
| 2026-05-04 23:43 | 34.56158 | -85.48920 | 37030 ft | 494 kts | 140° |
| 2026-05-04 23:43 | 34.53659 | -85.46051 | 37273 ft | 495 kts | 140° |
| 2026-05-04 23:44 | 34.51156 | -85.43179 | 37483 ft | 496 kts | 140° |
| 2026-05-04 23:44 | 34.48650 | -85.40307 | 37695 ft | 497 kts | 140° |
| 2026-05-04 23:44 | 34.46138 | -85.37430 | 37933 ft | 497 kts | 140° |
| 2026-05-04 23:44 | 34.43616 | -85.34545 | 38142 ft | 498 kts | 140° |
| 2026-05-04 23:45 | 34.41130 | -85.31702 | 38347 ft | 499 kts | 140° |
| 2026-05-04 23:45 | 34.38606 | -85.28819 | 38547 ft | 499 kts | 140° |
| 2026-05-04 23:45 | 34.36076 | -85.25931 | 38732 ft | 500 kts | 140° |
| 2026-05-04 23:45 | 34.33543 | -85.23044 | 38881 ft | 500 kts | 140° |
| 2026-05-04 23:46 | 34.28467 | -85.17263 | 38995 ft | 501 kts | 140° |
| 2026-05-04 23:46 | 34.23408 | -85.11512 | 38985 ft | 499 kts | 140° |
| 2026-05-04 23:47 | 34.18348 | -85.05770 | 38993 ft | 499 kts | 140° |
| 2026-05-04 23:47 | 34.13285 | -85.00035 | 39005 ft | 499 kts | 140° |
| 2026-05-04 23:48 | 34.08220 | -84.94306 | 39016 ft | 499 kts | 140° |
| 2026-05-04 23:48 | 34.03148 | -84.88580 | 39010 ft | 499 kts | 140° |
| 2026-05-04 23:49 | 33.98069 | -84.82856 | 39021 ft | 500 kts | 140° |
| 2026-05-04 23:49 | 33.92989 | -84.77141 | 39015 ft | 500 kts | 141° |
| 2026-05-04 23:50 | 33.87897 | -84.71421 | 39025 ft | 500 kts | 141° |
| 2026-05-04 23:50 | 33.82798 | -84.65705 | 39023 ft | 500 kts | 141° |
| 2026-05-04 23:51 | 33.77700 | -84.59998 | 39025 ft | 501 kts | 141° |
| 2026-05-04 23:51 | 33.72633 | -84.54335 | 39027 ft | 500 kts | 141° |
| 2026-05-04 23:52 | 33.67527 | -84.48636 | 39032 ft | 501 kts | 141° |
| 2026-05-04 23:52 | 33.62098 | -84.43574 | 39018 ft | 485 kts | 162° |
| 2026-05-04 23:53 | 33.55821 | -84.40741 | 39012 ft | 484 kts | 167° |
| 2026-05-04 23:53 | 33.49429 | -84.38095 | 39064 ft | 488 kts | 167° |
| 2026-05-04 23:54 | 33.42953 | -84.35489 | 39061 ft | 491 kts | 167° |
| 2026-05-04 23:54 | 33.36504 | -84.32906 | 39059 ft | 492 kts | 168° |
| 2026-05-04 23:55 | 33.30002 | -84.30307 | 39057 ft | 492 kts | 168° |
| 2026-05-04 23:56 | 33.20242 | -84.26413 | 39046 ft | 493 kts | 168° |
| 2026-05-04 23:56 | 33.13723 | -84.23816 | 39045 ft | 493 kts | 168° |
| 2026-05-04 23:57 | 33.07202 | -84.21224 | 39054 ft | 494 kts | 168° |
| 2026-05-04 23:57 | 33.00673 | -84.18632 | 39062 ft | 494 kts | 168° |
| 2026-05-04 23:58 | 32.94177 | -84.16058 | 39056 ft | 495 kts | 168° |
| 2026-05-04 23:58 | 32.87636 | -84.13469 | 39048 ft | 495 kts | 168° |
| 2026-05-04 23:59 | 32.81096 | -84.10885 | 39047 ft | 495 kts | 168° |
| 2026-05-04 23:59 | 32.74541 | -84.08299 | 39037 ft | 496 kts | 168° |
| 2026-05-05 00:00 | 32.67980 | -84.05715 | 39035 ft | 496 kts | 168° |
| 2026-05-05 00:00 | 32.61421 | -84.03135 | 39046 ft | 497 kts | 168° |
| 2026-05-05 00:01 | 32.54857 | -84.00558 | 39051 ft | 497 kts | 169° |
| 2026-05-05 00:01 | 32.48284 | -83.97981 | 39056 ft | 497 kts | 169° |
| 2026-05-05 00:02 | 32.41704 | -83.95405 | 39055 ft | 498 kts | 169° |
| 2026-05-05 00:02 | 32.35160 | -83.92848 | 39049 ft | 498 kts | 169° |
| 2026-05-05 00:03 | 32.28563 | -83.90273 | 39050 ft | 498 kts | 169° |
| 2026-05-05 00:03 | 32.21969 | -83.87703 | 39032 ft | 498 kts | 169° |
| 2026-05-05 00:04 | 32.15380 | -83.85140 | 39039 ft | 498 kts | 169° |
| 2026-05-05 00:04 | 32.08796 | -83.82583 | 39038 ft | 498 kts | 169° |
| 2026-05-05 00:05 | 32.02206 | -83.80026 | 39038 ft | 499 kts | 169° |
| 2026-05-05 00:05 | 31.95610 | -83.77471 | 39041 ft | 499 kts | 169° |
| 2026-05-05 00:06 | 31.89008 | -83.74918 | 39048 ft | 499 kts | 169° |
| 2026-05-05 00:06 | 31.82419 | -83.72374 | 39044 ft | 498 kts | 169° |
| 2026-05-05 00:07 | 31.75873 | -83.69849 | 39041 ft | 498 kts | 169° |
| 2026-05-05 00:07 | 31.69292 | -83.67256 | 39038 ft | 503 kts | 163° |
| 2026-05-05 00:08 | 31.63078 | -83.63312 | 39042 ft | 509 kts | 158° |
| 2026-05-05 00:08 | 31.56875 | -83.59311 | 39051 ft | 508 kts | 157° |
| 2026-05-05 00:09 | 31.50673 | -83.55301 | 39058 ft | 508 kts | 157° |
| 2026-05-05 00:09 | 31.44488 | -83.51306 | 39059 ft | 506 kts | 157° |
| 2026-05-05 00:10 | 31.38327 | -83.47334 | 39056 ft | 505 kts | 157° |
| 2026-05-05 00:10 | 31.32172 | -83.43370 | 39055 ft | 504 kts | 157° |
| 2026-05-05 00:11 | 31.26024 | -83.39418 | 39045 ft | 504 kts | 158° |
| 2026-05-05 00:11 | 31.19880 | -83.35474 | 39038 ft | 503 kts | 158° |
| 2026-05-05 00:12 | 31.13747 | -83.31543 | 39024 ft | 502 kts | 158° |
| 2026-05-05 00:12 | 31.07655 | -83.27645 | 39033 ft | 502 kts | 158° |
| 2026-05-05 00:13 | 31.01538 | -83.23735 | 39016 ft | 501 kts | 158° |
| 2026-05-05 00:13 | 30.95422 | -83.19833 | 39022 ft | 500 kts | 158° |
| 2026-05-05 00:14 | 30.89322 | -83.15946 | 39024 ft | 499 kts | 158° |
| 2026-05-05 00:14 | 30.84215 | -83.12695 | 39023 ft | 499 kts | 158° |
| 2026-05-05 00:15 | 30.78317 | -83.08517 | 39029 ft | 506 kts | 143° |
| 2026-05-05 00:15 | 30.73019 | -83.03064 | 39044 ft | 508 kts | 143° |
| 2026-05-05 00:16 | 30.67722 | -82.97629 | 39058 ft | 507 kts | 143° |
| 2026-05-05 00:16 | 30.62445 | -82.92202 | 39069 ft | 506 kts | 143° |
| 2026-05-05 00:17 | 30.57179 | -82.86793 | 39076 ft | 505 kts | 143° |
| 2026-05-05 00:17 | 30.51918 | -82.81397 | 39075 ft | 504 kts | 143° |
| 2026-05-05 00:18 | 30.46689 | -82.76041 | 39069 ft | 504 kts | 143° |
| 2026-05-05 00:18 | 30.41440 | -82.70674 | 39063 ft | 503 kts | 143° |
| 2026-05-05 00:18 | 30.38819 | -82.67996 | 38830 ft | 498 kts | 144° |
| 2026-05-05 00:19 | 30.36208 | -82.65332 | 37908 ft | 503 kts | 144° |
| 2026-05-05 00:19 | 30.33564 | -82.62635 | 37007 ft | 508 kts | 143° |
| 2026-05-05 00:19 | 30.30925 | -82.59945 | 36551 ft | 502 kts | 143° |
| 2026-05-05 00:19 | 30.28323 | -82.57295 | 36191 ft | 495 kts | 144° |
| 2026-05-05 00:20 | 30.25747 | -82.54674 | 35684 ft | 492 kts | 144° |
| 2026-05-05 00:20 | 30.23173 | -82.52056 | 35107 ft | 492 kts | 144° |
| 2026-05-05 00:20 | 30.20599 | -82.49440 | 34575 ft | 490 kts | 144° |
| 2026-05-05 00:20 | 30.18040 | -82.46841 | 34069 ft | 489 kts | 143° |
| 2026-05-05 00:21 | 30.15519 | -82.44282 | 33496 ft | 487 kts | 144° |
| 2026-05-05 00:21 | 30.12901 | -82.41837 | 32888 ft | 479 kts | 154° |
| 2026-05-05 00:21 | 30.09949 | -82.40238 | 32302 ft | 460 kts | 172° |
| 2026-05-05 00:21 | 30.06892 | -82.39286 | 31884 ft | 452 kts | 173° |
| 2026-05-05 00:22 | 30.03868 | -82.38378 | 31436 ft | 447 kts | 174° |
| 2026-05-05 00:22 | 30.00861 | -82.37509 | 30942 ft | 444 kts | 174° |
| 2026-05-05 00:22 | 29.97873 | -82.36667 | 30457 ft | 441 kts | 175° |
| 2026-05-05 00:22 | 29.94893 | -82.35839 | 29936 ft | 438 kts | 175° |
| 2026-05-05 00:23 | 29.91940 | -82.35020 | 29427 ft | 435 kts | 175° |
| 2026-05-05 00:23 | 29.89023 | -82.34215 | 29073 ft | 428 kts | 175° |
| 2026-05-05 00:23 | 29.86083 | -82.33406 | 28659 ft | 442 kts | 174° |
| 2026-05-05 00:23 | 29.83037 | -82.32567 | 28197 ft | 457 kts | 174° |
| 2026-05-05 00:24 | 29.79892 | -82.31700 | 27695 ft | 472 kts | 173° |
| 2026-05-05 00:24 | 29.76671 | -82.30867 | 27227 ft | 474 kts | 174° |
| 2026-05-05 00:24 | 29.73466 | -82.30084 | 27013 ft | 468 kts | 174° |
| 2026-05-05 00:24 | 29.70297 | -82.29303 | 26792 ft | 465 kts | 174° |
| 2026-05-05 00:25 | 29.67134 | -82.28521 | 26574 ft | 464 kts | 174° |
| 2026-05-05 00:25 | 29.63978 | -82.27741 | 26360 ft | 463 kts | 174° |
| 2026-05-05 00:25 | 29.60835 | -82.26965 | 26149 ft | 462 kts | 174° |
| 2026-05-05 00:25 | 29.57698 | -82.26190 | 25872 ft | 460 kts | 174° |
| 2026-05-05 00:26 | 29.54579 | -82.25420 | 25304 ft | 456 kts | 174° |
| 2026-05-05 00:26 | 29.51483 | -82.24656 | 24679 ft | 454 kts | 173° |
| 2026-05-05 00:26 | 29.48400 | -82.23896 | 24066 ft | 453 kts | 173° |
| 2026-05-05 00:26 | 29.45369 | -82.23150 | 23441 ft | 451 kts | 173° |
| 2026-05-05 00:27 | 29.42298 | -82.22394 | 22748 ft | 449 kts | 173° |
| 2026-05-05 00:27 | 29.39256 | -82.21646 | 22145 ft | 445 kts | 173° |
| 2026-05-05 00:27 | 29.36245 | -82.20905 | 21566 ft | 440 kts | 172° |
| 2026-05-05 00:27 | 29.33261 | -82.20172 | 20990 ft | 437 kts | 172° |
| 2026-05-05 00:28 | 29.30301 | -82.19445 | 20406 ft | 433 kts | 172° |
| 2026-05-05 00:28 | 29.27429 | -82.18363 | 19753 ft | 438 kts | 160° |
| 2026-05-05 00:28 | 29.24635 | -82.17013 | 19196 ft | 434 kts | 161° |
| 2026-05-05 00:28 | 29.21851 | -82.15688 | 18626 ft | 431 kts | 161° |
| 2026-05-05 00:29 | 29.19091 | -82.14374 | 18026 ft | 427 kts | 160° |
| 2026-05-05 00:29 | 29.16386 | -82.13087 | 17463 ft | 415 kts | 160° |
| 2026-05-05 00:29 | 29.13751 | -82.11835 | 16945 ft | 404 kts | 160° |
| 2026-05-05 00:29 | 29.11185 | -82.10617 | 16434 ft | 396 kts | 160° |
| 2026-05-05 00:30 | 29.08652 | -82.09414 | 15952 ft | 390 kts | 160° |
| 2026-05-05 00:30 | 29.06146 | -82.08225 | 15467 ft | 388 kts | 159° |
| 2026-05-05 00:30 | 29.03691 | -82.07061 | 14993 ft | 386 kts | 159° |
| 2026-05-05 00:30 | 29.01216 | -82.05888 | 14523 ft | 384 kts | 159° |
| 2026-05-05 00:31 | 28.98832 | -82.04533 | 14001 ft | 385 kts | 146° |
| 2026-05-05 00:31 | 28.96854 | -82.02472 | 13475 ft | 384 kts | 135° |
| 2026-05-05 00:31 | 28.94982 | -82.00306 | 13010 ft | 381 kts | 136° |
| 2026-05-05 00:31 | 28.93135 | -81.98154 | 12558 ft | 377 kts | 136° |
| 2026-05-05 00:32 | 28.91312 | -81.96020 | 12152 ft | 373 kts | 135° |
| 2026-05-05 00:32 | 28.89530 | -81.93931 | 11973 ft | 362 kts | 135° |
| 2026-05-05 00:32 | 28.87788 | -81.91940 | 11792 ft | 344 kts | 140° |
| 2026-05-05 00:32 | 28.86041 | -81.90186 | 11616 ft | 324 kts | 140° |
| 2026-05-05 00:33 | 28.84377 | -81.88508 | 11479 ft | 315 kts | 140° |
| 2026-05-05 00:33 | 28.82757 | -81.86864 | 11324 ft | 309 kts | 140° |
| 2026-05-05 00:33 | 28.81185 | -81.85264 | 11021 ft | 307 kts | 140° |
| 2026-05-05 00:33 | 28.79606 | -81.83635 | 10703 ft | 305 kts | 140° |
| 2026-05-05 00:34 | 28.78045 | -81.81998 | 10367 ft | 304 kts | 140° |
| 2026-05-05 00:34 | 28.76489 | -81.80365 | 10042 ft | 303 kts | 140° |
| 2026-05-05 00:34 | 28.74937 | -81.78738 | 9726 ft | 302 kts | 140° |
| 2026-05-05 00:34 | 28.73398 | -81.77122 | 9394 ft | 300 kts | 140° |
| 2026-05-05 00:35 | 28.71801 | -81.75634 | 9118 ft | 292 kts | 154° |
| 2026-05-05 00:35 | 28.69929 | -81.74982 | 9032 ft | 274 kts | 180° |
| 2026-05-05 00:35 | 28.68125 | -81.75299 | 9025 ft | 255 kts | 201° |
| 2026-05-05 00:35 | 28.66506 | -81.75973 | 9019 ft | 241 kts | 203° |
| 2026-05-05 00:36 | 28.64947 | -81.76597 | 8850 ft | 236 kts | 195° |
| 2026-05-05 00:36 | 28.63292 | -81.76621 | 8551 ft | 239 kts | 175° |
| 2026-05-05 00:36 | 28.61642 | -81.76321 | 8259 ft | 239 kts | 173° |
| 2026-05-05 00:36 | 28.60029 | -81.76009 | 8002 ft | 237 kts | 173° |
| 2026-05-05 00:37 | 28.58403 | -81.75697 | 7728 ft | 236 kts | 173° |
| 2026-05-05 00:37 | 28.56799 | -81.75386 | 7355 ft | 232 kts | 173° |
| 2026-05-05 00:37 | 28.55207 | -81.75082 | 6949 ft | 231 kts | 173° |
| 2026-05-05 00:37 | 28.53629 | -81.74763 | 6553 ft | 230 kts | 169° |
| 2026-05-05 00:38 | 28.52144 | -81.74076 | 6174 ft | 229 kts | 155° |
| 2026-05-05 00:38 | 28.50741 | -81.73199 | 5710 ft | 230 kts | 153° |
| 2026-05-05 00:38 | 28.49347 | -81.72324 | 5322 ft | 228 kts | 153° |
| 2026-05-05 00:38 | 28.47954 | -81.71464 | 4903 ft | 228 kts | 153° |
| 2026-05-05 00:39 | 28.46685 | -81.70420 | 4490 ft | 226 kts | 128° |
| 2026-05-05 00:39 | 28.46082 | -81.68827 | 4146 ft | 220 kts | 96° |
| 2026-05-05 00:39 | 28.46136 | -81.67114 | 3813 ft | 214 kts | 84° |
| 2026-05-05 00:39 | 28.46307 | -81.65481 | 3603 ft | 202 kts | 85° |
| 2026-05-05 00:40 | 28.46335 | -81.63929 | 3408 ft | 191 kts | 91° |
| 2026-05-05 00:40 | 28.46327 | -81.62461 | 3203 ft | 181 kts | 91° |
| 2026-05-05 00:40 | 28.46324 | -81.61061 | 2936 ft | 175 kts | 90° |
| 2026-05-05 00:40 | 28.46323 | -81.59678 | 2592 ft | 175 kts | 90° |
| 2026-05-05 00:41 | 28.46325 | -81.58299 | 2263 ft | 173 kts | 90° |
| 2026-05-05 00:41 | 28.46361 | -81.56951 | 2092 ft | 170 kts | 85° |
| 2026-05-05 00:41 | 28.46567 | -81.55617 | 2053 ft | 174 kts | 78° |
| 2026-05-05 00:41 | 28.46868 | -81.54284 | 2032 ft | 174 kts | 75° |
| 2026-05-05 00:42 | 28.47229 | -81.52997 | 1992 ft | 173 kts | 73° |
| 2026-05-05 00:42 | 28.47635 | -81.51711 | 1984 ft | 173 kts | 71° |
| 2026-05-05 00:42 | 28.48070 | -81.50436 | 2004 ft | 173 kts | 70° |
| 2026-05-05 00:42 | 28.48527 | -81.49167 | 1989 ft | 173 kts | 70° |
| 2026-05-05 00:43 | 28.48989 | -81.47918 | 2009 ft | 171 kts | 70° |
| 2026-05-05 00:43 | 28.49456 | -81.46669 | 2002 ft | 172 kts | 69° |
| 2026-05-05 00:43 | 28.49929 | -81.45412 | 2003 ft | 173 kts | 69° |
| 2026-05-05 00:43 | 28.50404 | -81.44158 | 1953 ft | 172 kts | 69° |
| 2026-05-05 00:44 | 28.50874 | -81.42916 | 1777 ft | 171 kts | 69° |
| 2026-05-05 00:44 | 28.51320 | -81.41741 | 1590 ft | 151 kts | 69° |
| 2026-05-05 00:44 | 28.51710 | -81.40715 | 1398 ft | 134 kts | 69° |
| 2026-05-05 00:44 | 28.52074 | -81.39756 | 1230 ft | 131 kts | 69° |
| 2026-05-05 00:45 | 28.52430 | -81.38817 | 1047 ft | 131 kts | 69° |
| 2026-05-05 00:45 | 28.52792 | -81.37861 | 877 ft | 132 kts | 69° |
| 2026-05-05 00:45 | 28.53158 | -81.36899 | 696 ft | 133 kts | 68° |
| 2026-05-05 00:45 | 28.53524 | -81.35937 | 520 ft | 133 kts | 69° |
| 2026-05-05 00:46 | 28.53888 | -81.34963 | 347 ft | 132 kts | 69° |
| 2026-05-05 00:46 | 28.54250 | -81.34009 | 157 ft | 130 kts | 70° |
| 2026-05-05 00:46 | 28.54545 | -81.33234 | 119 ft | 61 kts | 65° |
| 2026-05-05 00:46 | 28.54666 | -81.32923 | 119 ft | 27 kts | 66° |
| 2026-05-05 00:47 | 28.54793 | -81.32754 | 116 ft | 30 kts | 37° |
| 2026-05-05 00:47 | 28.54849 | -81.32714 | 116 ft | 0 kts | 13° |
| 2026-05-05 00:48 | 28.54851 | -81.32714 | 116 ft | 2 kts | 9° |
| 2026-05-05 00:48 | 28.54921 | -81.32712 | 116 ft | 17 kts | 359° |
| 2026-05-05 00:48 | 28.54950 | -81.32721 | 118 ft | 4 kts | 314° |
| 2026-05-05 00:48 | 28.54932 | -81.32774 | 117 ft | 14 kts | 245° |
| 2026-05-05 00:49 | 28.54923 | -81.32797 | 118 ft | 0 kts | 247° |